sensor_id;sensor_type;location;lat;lon;timestamp;P1;durP1;ratioP1;P2;durP2;ratioP2
50821;SDS011;36794;51.212;6.980;2023-05-16T00:01:18;16.37;;;10.93;;
50821;SDS011;36794;51.212;6.980;2023-05-16T00:03:44;14.30;;;10.40;;
50821;SDS011;36794;51.212;6.980;2023-05-16T00:06:10;14.33;;;10.03;;
50821;SDS011;36794;51.212;6.980;2023-05-16T00:08:36;13.67;;;8.33;;
50821;SDS011;36794;51.212;6.980;2023-05-16T00:11:02;11.20;;;7.10;;
50821;SDS011;36794;51.212;6.980;2023-05-16T00:13:28;13.57;;;6.67;;
50821;SDS011;36794;51.212;6.980;2023-05-16T00:15:55;9.23;;;6.60;;
50821;SDS011;36794;51.212;6.980;2023-05-16T00:18:21;11.40;;;6.57;;
50821;SDS011;36794;51.212;6.980;2023-05-16T00:20:48;9.33;;;6.73;;
50821;SDS011;36794;51.212;6.980;2023-05-16T00:23:15;17.90;;;6.50;;
50821;SDS011;36794;51.212;6.980;2023-05-16T00:25:41;16.67;;;7.20;;
50821;SDS011;36794;51.212;6.980;2023-05-16T00:28:07;11.70;;;6.60;;
50821;SDS011;36794;51.212;6.980;2023-05-16T00:30:33;19.07;;;7.00;;
50821;SDS011;36794;51.212;6.980;2023-05-16T00:32:59;23.80;;;7.17;;
50821;SDS011;36794;51.212;6.980;2023-05-16T00:35:26;9.87;;;6.60;;
50821;SDS011;36794;51.212;6.980;2023-05-16T00:37:52;19.57;;;7.17;;
50821;SDS011;36794;51.212;6.980;2023-05-16T00:40:18;17.67;;;7.23;;
50821;SDS011;36794;51.212;6.980;2023-05-16T00:42:44;8.20;;;5.80;;
50821;SDS011;36794;51.212;6.980;2023-05-16T00:45:10;17.07;;;6.40;;
50821;SDS011;36794;51.212;6.980;2023-05-16T00:47:36;11.37;;;5.80;;
50821;SDS011;36794;51.212;6.980;2023-05-16T00:50:02;20.87;;;5.70;;
50821;SDS011;36794;51.212;6.980;2023-05-16T00:52:29;8.77;;;5.77;;
50821;SDS011;36794;51.212;6.980;2023-05-16T00:54:57;8.33;;;5.90;;
50821;SDS011;36794;51.212;6.980;2023-05-16T00:57:23;12.83;;;6.50;;
50821;SDS011;36794;51.212;6.980;2023-05-16T00:59:49;10.57;;;5.40;;
50821;SDS011;36794;51.212;6.980;2023-05-16T01:02:15;19.27;;;5.43;;
50821;SDS011;36794;51.212;6.980;2023-05-16T01:04:42;16.40;;;5.60;;
50821;SDS011;36794;51.212;6.980;2023-05-16T01:07:08;7.90;;;4.63;;
50821;SDS011;36794;51.212;6.980;2023-05-16T01:09:34;10.40;;;5.07;;
50821;SDS011;36794;51.212;6.980;2023-05-16T01:27:31;6.03;;;3.00;;
50821;SDS011;36794;51.212;6.980;2023-05-16T01:29:58;4.43;;;3.10;;
50821;SDS011;36794;51.212;6.980;2023-05-16T01:32:24;4.73;;;3.03;;
50821;SDS011;36794;51.212;6.980;2023-05-16T01:34:50;18.03;;;3.30;;
50821;SDS011;36794;51.212;6.980;2023-05-16T01:37:20;8.63;;;3.00;;
50821;SDS011;36794;51.212;6.980;2023-05-16T01:39:54;5.73;;;3.13;;
50821;SDS011;36794;51.212;6.980;2023-05-16T01:42:21;8.93;;;2.53;;
50821;SDS011;36794;51.212;6.980;2023-05-16T01:45:09;11.40;;;3.37;;
50821;SDS011;36794;51.212;6.980;2023-05-16T01:47:39;6.57;;;2.57;;
50821;SDS011;36794;51.212;6.980;2023-05-16T01:50:07;7.33;;;2.83;;
50821;SDS011;36794;51.212;6.980;2023-05-16T01:52:40;8.63;;;3.80;;
50821;SDS011;36794;51.212;6.980;2023-05-16T01:55:09;9.97;;;3.40;;
50821;SDS011;36794;51.212;6.980;2023-05-16T01:57:36;10.13;;;3.77;;
50821;SDS011;36794;51.212;6.980;2023-05-16T02:00:03;8.10;;;4.33;;
50821;SDS011;36794;51.212;6.980;2023-05-16T02:02:30;7.93;;;3.57;;
50821;SDS011;36794;51.212;6.980;2023-05-16T02:04:56;13.33;;;3.50;;
50821;SDS011;36794;51.212;6.980;2023-05-16T02:07:22;8.47;;;3.40;;
50821;SDS011;36794;51.212;6.980;2023-05-16T02:09:48;12.33;;;2.80;;
50821;SDS011;36794;51.212;6.980;2023-05-16T02:12:14;12.23;;;2.53;;
50821;SDS011;36794;51.212;6.980;2023-05-16T02:14:40;12.63;;;2.87;;
50821;SDS011;36794;51.212;6.980;2023-05-16T02:17:06;12.30;;;3.23;;
50821;SDS011;36794;51.212;6.980;2023-05-16T02:19:32;28.07;;;3.60;;
50821;SDS011;36794;51.212;6.980;2023-05-16T02:21:58;14.43;;;2.80;;
50821;SDS011;36794;51.212;6.980;2023-05-16T02:24:24;16.70;;;3.53;;
50821;SDS011;36794;51.212;6.980;2023-05-16T02:26:50;12.87;;;2.97;;
50821;SDS011;36794;51.212;6.980;2023-05-16T02:29:16;15.67;;;2.93;;
50821;SDS011;36794;51.212;6.980;2023-05-16T02:31:42;18.27;;;2.93;;
50821;SDS011;36794;51.212;6.980;2023-05-16T02:34:08;21.87;;;3.53;;
50821;SDS011;36794;51.212;6.980;2023-05-16T02:36:34;16.50;;;2.97;;
50821;SDS011;36794;51.212;6.980;2023-05-16T02:39:01;12.30;;;3.23;;
50821;SDS011;36794;51.212;6.980;2023-05-16T02:41:28;17.73;;;3.20;;
50821;SDS011;36794;51.212;6.980;2023-05-16T02:43:54;19.83;;;3.30;;
50821;SDS011;36794;51.212;6.980;2023-05-16T02:46:21;21.93;;;3.07;;
50821;SDS011;36794;51.212;6.980;2023-05-16T02:48:47;13.47;;;3.93;;
50821;SDS011;36794;51.212;6.980;2023-05-16T02:51:13;14.87;;;4.00;;
50821;SDS011;36794;51.212;6.980;2023-05-16T02:53:39;20.27;;;3.63;;
50821;SDS011;36794;51.212;6.980;2023-05-16T02:56:05;21.33;;;5.00;;
50821;SDS011;36794;51.212;6.980;2023-05-16T02:58:31;20.20;;;4.80;;
50821;SDS011;36794;51.212;6.980;2023-05-16T03:00:58;19.67;;;4.40;;
50821;SDS011;36794;51.212;6.980;2023-05-16T03:03:23;21.10;;;4.93;;
50821;SDS011;36794;51.212;6.980;2023-05-16T03:05:50;17.57;;;5.50;;
50821;SDS011;36794;51.212;6.980;2023-05-16T03:08:16;30.60;;;7.40;;
50821;SDS011;36794;51.212;6.980;2023-05-16T03:10:42;15.33;;;5.00;;
50821;SDS011;36794;51.212;6.980;2023-05-16T03:13:08;19.43;;;5.90;;
50821;SDS011;36794;51.212;6.980;2023-05-16T03:15:34;22.43;;;5.37;;
50821;SDS011;36794;51.212;6.980;2023-05-16T03:18:00;27.20;;;5.10;;
50821;SDS011;36794;51.212;6.980;2023-05-16T03:20:26;21.60;;;5.23;;
50821;SDS011;36794;51.212;6.980;2023-05-16T03:22:52;18.80;;;4.90;;
50821;SDS011;36794;51.212;6.980;2023-05-16T03:25:18;17.80;;;4.27;;
50821;SDS011;36794;51.212;6.980;2023-05-16T03:27:44;15.73;;;3.90;;
50821;SDS011;36794;51.212;6.980;2023-05-16T03:30:10;19.73;;;4.60;;
50821;SDS011;36794;51.212;6.980;2023-05-16T03:32:37;24.47;;;4.30;;
50821;SDS011;36794;51.212;6.980;2023-05-16T03:35:03;27.17;;;4.97;;
50821;SDS011;36794;51.212;6.980;2023-05-16T03:37:29;19.57;;;4.93;;
50821;SDS011;36794;51.212;6.980;2023-05-16T03:39:55;27.83;;;4.57;;
50821;SDS011;36794;51.212;6.980;2023-05-16T03:42:21;22.53;;;3.93;;
50821;SDS011;36794;51.212;6.980;2023-05-16T03:44:47;18.70;;;4.20;;
50821;SDS011;36794;51.212;6.980;2023-05-16T03:47:13;20.07;;;3.93;;
50821;SDS011;36794;51.212;6.980;2023-05-16T03:49:40;16.13;;;3.70;;
50821;SDS011;36794;51.212;6.980;2023-05-16T03:52:06;21.33;;;4.17;;
50821;SDS011;36794;51.212;6.980;2023-05-16T03:54:32;13.30;;;3.63;;
50821;SDS011;36794;51.212;6.980;2023-05-16T03:56:58;25.70;;;3.87;;
50821;SDS011;36794;51.212;6.980;2023-05-16T03:59:24;22.27;;;4.07;;
50821;SDS011;36794;51.212;6.980;2023-05-16T04:01:50;19.60;;;3.37;;
50821;SDS011;36794;51.212;6.980;2023-05-16T04:04:16;22.60;;;4.03;;
50821;SDS011;36794;51.212;6.980;2023-05-16T04:06:41;18.47;;;3.00;;
50821;SDS011;36794;51.212;6.980;2023-05-16T04:09:07;15.40;;;2.83;;
50821;SDS011;36794;51.212;6.980;2023-05-16T04:11:33;18.20;;;3.20;;
50821;SDS011;36794;51.212;6.980;2023-05-16T04:14:00;22.60;;;2.90;;
50821;SDS011;36794;51.212;6.980;2023-05-16T04:16:26;22.90;;;3.27;;
50821;SDS011;36794;51.212;6.980;2023-05-16T04:18:52;32.07;;;3.77;;
50821;SDS011;36794;51.212;6.980;2023-05-16T04:21:18;24.67;;;2.90;;
50821;SDS011;36794;51.212;6.980;2023-05-16T04:23:44;16.53;;;3.17;;
50821;SDS011;36794;51.212;6.980;2023-05-16T04:26:10;18.73;;;3.60;;
50821;SDS011;36794;51.212;6.980;2023-05-16T04:28:36;18.83;;;3.00;;
50821;SDS011;36794;51.212;6.980;2023-05-16T04:31:02;27.13;;;3.47;;
50821;SDS011;36794;51.212;6.980;2023-05-16T04:33:28;17.77;;;2.93;;
50821;SDS011;36794;51.212;6.980;2023-05-16T04:35:54;22.77;;;3.77;;
50821;SDS011;36794;51.212;6.980;2023-05-16T04:38:22;30.63;;;3.57;;
50821;SDS011;36794;51.212;6.980;2023-05-16T04:40:48;21.30;;;3.63;;
50821;SDS011;36794;51.212;6.980;2023-05-16T04:43:17;25.30;;;3.03;;
50821;SDS011;36794;51.212;6.980;2023-05-16T04:45:43;22.27;;;3.53;;
50821;SDS011;36794;51.212;6.980;2023-05-16T04:48:10;24.97;;;2.90;;
50821;SDS011;36794;51.212;6.980;2023-05-16T04:50:37;20.17;;;2.77;;
50821;SDS011;36794;51.212;6.980;2023-05-16T04:53:03;18.80;;;3.63;;
50821;SDS011;36794;51.212;6.980;2023-05-16T04:55:29;16.93;;;2.60;;
50821;SDS011;36794;51.212;6.980;2023-05-16T04:57:55;31.73;;;2.73;;
50821;SDS011;36794;51.212;6.980;2023-05-16T05:00:21;28.77;;;3.53;;
50821;SDS011;36794;51.212;6.980;2023-05-16T05:02:47;17.97;;;2.17;;
50821;SDS011;36794;51.212;6.980;2023-05-16T05:05:13;22.60;;;3.00;;
50821;SDS011;36794;51.212;6.980;2023-05-16T05:07:39;21.20;;;2.67;;
50821;SDS011;36794;51.212;6.980;2023-05-16T05:10:05;20.17;;;2.90;;
50821;SDS011;36794;51.212;6.980;2023-05-16T05:12:32;15.67;;;2.40;;
50821;SDS011;36794;51.212;6.980;2023-05-16T05:14:58;27.50;;;3.30;;
50821;SDS011;36794;51.212;6.980;2023-05-16T05:17:24;20.63;;;2.67;;
50821;SDS011;36794;51.212;6.980;2023-05-16T05:19:50;22.43;;;2.83;;
50821;SDS011;36794;51.212;6.980;2023-05-16T05:22:16;23.63;;;2.87;;
50821;SDS011;36794;51.212;6.980;2023-05-16T05:24:42;23.83;;;3.10;;
50821;SDS011;36794;51.212;6.980;2023-05-16T05:27:08;21.40;;;2.60;;
50821;SDS011;36794;51.212;6.980;2023-05-16T05:29:34;23.43;;;2.43;;
50821;SDS011;36794;51.212;6.980;2023-05-16T05:32:00;16.47;;;2.20;;
50821;SDS011;36794;51.212;6.980;2023-05-16T05:34:26;19.60;;;2.80;;
50821;SDS011;36794;51.212;6.980;2023-05-16T05:36:52;22.13;;;2.50;;
50821;SDS011;36794;51.212;6.980;2023-05-16T05:39:18;21.83;;;2.70;;
50821;SDS011;36794;51.212;6.980;2023-05-16T05:41:44;13.40;;;2.87;;
50821;SDS011;36794;51.212;6.980;2023-05-16T05:44:10;19.37;;;2.63;;
50821;SDS011;36794;51.212;6.980;2023-05-16T05:46:36;23.63;;;3.57;;
50821;SDS011;36794;51.212;6.980;2023-05-16T05:49:02;26.97;;;2.90;;
50821;SDS011;36794;51.212;6.980;2023-05-16T05:51:28;14.87;;;2.00;;
50821;SDS011;36794;51.212;6.980;2023-05-16T05:53:54;22.33;;;3.70;;
50821;SDS011;36794;51.212;6.980;2023-05-16T05:56:20;24.47;;;3.00;;
50821;SDS011;36794;51.212;6.980;2023-05-16T05:58:46;19.83;;;2.70;;
50821;SDS011;36794;51.212;6.980;2023-05-16T06:01:12;16.20;;;2.20;;
50821;SDS011;36794;51.212;6.980;2023-05-16T06:03:38;15.90;;;2.37;;
50821;SDS011;36794;51.212;6.980;2023-05-16T06:06:04;26.30;;;2.20;;
50821;SDS011;36794;51.212;6.980;2023-05-16T06:08:30;11.10;;;2.10;;
50821;SDS011;36794;51.212;6.980;2023-05-16T06:10:56;14.73;;;1.93;;
50821;SDS011;36794;51.212;6.980;2023-05-16T06:13:22;17.43;;;2.07;;
50821;SDS011;36794;51.212;6.980;2023-05-16T06:15:52;14.83;;;1.93;;
50821;SDS011;36794;51.212;6.980;2023-05-16T06:18:18;20.17;;;2.97;;
50821;SDS011;36794;51.212;6.980;2023-05-16T06:20:44;20.43;;;2.97;;
50821;SDS011;36794;51.212;6.980;2023-05-16T06:23:10;21.03;;;2.60;;
50821;SDS011;36794;51.212;6.980;2023-05-16T06:25:37;21.53;;;3.03;;
50821;SDS011;36794;51.212;6.980;2023-05-16T06:28:03;19.63;;;2.23;;
50821;SDS011;36794;51.212;6.980;2023-05-16T06:30:29;20.87;;;2.30;;
50821;SDS011;36794;51.212;6.980;2023-05-16T06:32:55;15.37;;;2.03;;
50821;SDS011;36794;51.212;6.980;2023-05-16T06:35:21;14.37;;;1.97;;
50821;SDS011;36794;51.212;6.980;2023-05-16T06:37:47;13.73;;;2.00;;
50821;SDS011;36794;51.212;6.980;2023-05-16T06:40:13;14.97;;;1.80;;
50821;SDS011;36794;51.212;6.980;2023-05-16T06:42:39;15.97;;;2.63;;
50821;SDS011;36794;51.212;6.980;2023-05-16T06:45:05;13.27;;;2.17;;
50821;SDS011;36794;51.212;6.980;2023-05-16T06:47:31;17.27;;;2.50;;
50821;SDS011;36794;51.212;6.980;2023-05-16T06:49:57;20.03;;;2.63;;
50821;SDS011;36794;51.212;6.980;2023-05-16T06:52:23;21.30;;;2.23;;
50821;SDS011;36794;51.212;6.980;2023-05-16T06:54:51;22.90;;;2.40;;
50821;SDS011;36794;51.212;6.980;2023-05-16T06:57:17;14.27;;;1.87;;
50821;SDS011;36794;51.212;6.980;2023-05-16T06:59:43;18.37;;;2.50;;
50821;SDS011;36794;51.212;6.980;2023-05-16T07:02:09;13.13;;;2.10;;
50821;SDS011;36794;51.212;6.980;2023-05-16T07:04:35;12.37;;;2.43;;
50821;SDS011;36794;51.212;6.980;2023-05-16T07:07:02;14.47;;;2.07;;
50821;SDS011;36794;51.212;6.980;2023-05-16T07:09:28;16.27;;;2.33;;
50821;SDS011;36794;51.212;6.980;2023-05-16T07:11:54;10.67;;;1.67;;
50821;SDS011;36794;51.212;6.980;2023-05-16T07:14:20;15.33;;;1.70;;
50821;SDS011;36794;51.212;6.980;2023-05-16T07:16:46;10.33;;;1.37;;
50821;SDS011;36794;51.212;6.980;2023-05-16T07:19:12;15.93;;;1.80;;
50821;SDS011;36794;51.212;6.980;2023-05-16T07:21:38;13.33;;;1.77;;
50821;SDS011;36794;51.212;6.980;2023-05-16T07:24:04;15.17;;;1.70;;
50821;SDS011;36794;51.212;6.980;2023-05-16T07:26:30;14.67;;;1.83;;
50821;SDS011;36794;51.212;6.980;2023-05-16T07:28:56;19.37;;;2.23;;
50821;SDS011;36794;51.212;6.980;2023-05-16T07:31:22;14.23;;;1.70;;
50821;SDS011;36794;51.212;6.980;2023-05-16T07:33:48;15.10;;;1.60;;
50821;SDS011;36794;51.212;6.980;2023-05-16T07:36:14;10.23;;;1.50;;
50821;SDS011;36794;51.212;6.980;2023-05-16T07:38:40;14.27;;;1.80;;
50821;SDS011;36794;51.212;6.980;2023-05-16T07:41:06;9.67;;;1.27;;
50821;SDS011;36794;51.212;6.980;2023-05-16T07:43:32;12.73;;;1.23;;
50821;SDS011;36794;51.212;6.980;2023-05-16T07:46:01;8.47;;;1.30;;
50821;SDS011;36794;51.212;6.980;2023-05-16T07:48:27;8.40;;;1.00;;
50821;SDS011;36794;51.212;6.980;2023-05-16T07:50:53;11.90;;;1.50;;
50821;SDS011;36794;51.212;6.980;2023-05-16T07:53:20;13.97;;;1.47;;
50821;SDS011;36794;51.212;6.980;2023-05-16T07:55:46;7.60;;;1.33;;
50821;SDS011;36794;51.212;6.980;2023-05-16T07:58:12;7.57;;;1.40;;
50821;SDS011;36794;51.212;6.980;2023-05-16T08:00:38;10.67;;;1.40;;
50821;SDS011;36794;51.212;6.980;2023-05-16T08:03:04;7.40;;;1.10;;
50821;SDS011;36794;51.212;6.980;2023-05-16T08:05:31;9.27;;;1.27;;
50821;SDS011;36794;51.212;6.980;2023-05-16T08:08:00;8.17;;;1.23;;
50821;SDS011;36794;51.212;6.980;2023-05-16T08:10:26;8.90;;;1.10;;
50821;SDS011;36794;51.212;6.980;2023-05-16T08:12:52;11.13;;;1.27;;
50821;SDS011;36794;51.212;6.980;2023-05-16T08:15:18;6.43;;;1.60;;
50821;SDS011;36794;51.212;6.980;2023-05-16T08:17:45;9.07;;;1.03;;
50821;SDS011;36794;51.212;6.980;2023-05-16T08:20:11;9.40;;;0.83;;
50821;SDS011;36794;51.212;6.980;2023-05-16T08:22:37;4.03;;;0.90;;
50821;SDS011;36794;51.212;6.980;2023-05-16T08:25:03;8.47;;;1.30;;
50821;SDS011;36794;51.212;6.980;2023-05-16T08:27:29;10.70;;;1.23;;
50821;SDS011;36794;51.212;6.980;2023-05-16T08:29:55;8.73;;;1.30;;
50821;SDS011;36794;51.212;6.980;2023-05-16T08:32:21;9.10;;;1.27;;
50821;SDS011;36794;51.212;6.980;2023-05-16T08:34:47;10.23;;;1.23;;
50821;SDS011;36794;51.212;6.980;2023-05-16T08:37:13;11.83;;;1.43;;
50821;SDS011;36794;51.212;6.980;2023-05-16T08:39:40;9.67;;;1.60;;
50821;SDS011;36794;51.212;6.980;2023-05-16T08:42:06;10.17;;;1.80;;
50821;SDS011;36794;51.212;6.980;2023-05-16T08:44:33;9.87;;;1.87;;
50821;SDS011;36794;51.212;6.980;2023-05-16T08:47:01;11.03;;;1.30;;
50821;SDS011;36794;51.212;6.980;2023-05-16T08:49:28;10.83;;;1.03;;
50821;SDS011;36794;51.212;6.980;2023-05-16T08:51:55;10.07;;;1.47;;
50821;SDS011;36794;51.212;6.980;2023-05-16T08:54:22;11.83;;;1.60;;
50821;SDS011;36794;51.212;6.980;2023-05-16T08:56:48;9.87;;;1.50;;
50821;SDS011;36794;51.212;6.980;2023-05-16T08:59:14;9.07;;;1.63;;
50821;SDS011;36794;51.212;6.980;2023-05-16T09:01:41;7.90;;;1.30;;
50821;SDS011;36794;51.212;6.980;2023-05-16T09:04:07;7.43;;;1.10;;
50821;SDS011;36794;51.212;6.980;2023-05-16T09:06:36;12.13;;;1.60;;
50821;SDS011;36794;51.212;6.980;2023-05-16T09:09:02;8.37;;;1.40;;
50821;SDS011;36794;51.212;6.980;2023-05-16T09:11:31;11.17;;;1.30;;
50821;SDS011;36794;51.212;6.980;2023-05-16T09:13:57;9.43;;;1.40;;
50821;SDS011;36794;51.212;6.980;2023-05-16T09:16:23;9.67;;;1.60;;
50821;SDS011;36794;51.212;6.980;2023-05-16T09:18:53;6.50;;;1.10;;
50821;SDS011;36794;51.212;6.980;2023-05-16T09:21:20;7.53;;;0.90;;
50821;SDS011;36794;51.212;6.980;2023-05-16T09:23:49;9.23;;;1.63;;
50821;SDS011;36794;51.212;6.980;2023-05-16T09:26:18;4.63;;;0.97;;
50821;SDS011;36794;51.212;6.980;2023-05-16T09:28:45;6.87;;;1.07;;
50821;SDS011;36794;51.212;6.980;2023-05-16T09:31:18;5.20;;;1.33;;
50821;SDS011;36794;51.212;6.980;2023-05-16T09:33:45;9.30;;;1.27;;
50821;SDS011;36794;51.212;6.980;2023-05-16T09:36:11;10.13;;;1.50;;
50821;SDS011;36794;51.212;6.980;2023-05-16T09:38:38;8.57;;;1.20;;
50821;SDS011;36794;51.212;6.980;2023-05-16T09:41:04;6.03;;;1.25;;
50821;SDS011;36794;51.212;6.980;2023-05-16T09:43:30;8.10;;;1.13;;
50821;SDS011;36794;51.212;6.980;2023-05-16T09:45:57;5.28;;;0.65;;
50821;SDS011;36794;51.212;6.980;2023-05-16T09:48:23;7.10;;;0.88;;
50821;SDS011;36794;51.212;6.980;2023-05-16T09:50:52;10.50;;;1.10;;
50821;SDS011;36794;51.212;6.980;2023-05-16T09:53:25;6.80;;;0.85;;
50821;SDS011;36794;51.212;6.980;2023-05-16T09:56:25;8.25;;;1.02;;
50821;SDS011;36794;51.212;6.980;2023-05-16T09:58:45;7.03;;;1.73;;
50821;SDS011;36794;51.212;6.980;2023-05-16T10:01:11;6.65;;;1.15;;
50821;SDS011;36794;51.212;6.980;2023-05-16T10:03:38;6.47;;;1.00;;
50821;SDS011;36794;51.212;6.980;2023-05-16T10:06:05;4.75;;;0.68;;
50821;SDS011;36794;51.212;6.980;2023-05-16T10:08:31;8.82;;;0.90;;
50821;SDS011;36794;51.212;6.980;2023-05-16T10:11:01;8.35;;;0.95;;
50821;SDS011;36794;51.212;6.980;2023-05-16T10:13:28;6.50;;;0.75;;
50821;SDS011;36794;51.212;6.980;2023-05-16T10:15:55;8.82;;;1.02;;
50821;SDS011;36794;51.212;6.980;2023-05-16T10:18:21;7.00;;;0.75;;
50821;SDS011;36794;51.212;6.980;2023-05-16T10:20:50;5.93;;;1.13;;
50821;SDS011;36794;51.212;6.980;2023-05-16T10:23:18;6.43;;;0.82;;
50821;SDS011;36794;51.212;6.980;2023-05-16T10:25:46;5.78;;;0.82;;
50821;SDS011;36794;51.212;6.980;2023-05-16T10:28:12;6.40;;;1.15;;
50821;SDS011;36794;51.212;6.980;2023-05-16T10:30:39;4.60;;;0.60;;
50821;SDS011;36794;51.212;6.980;2023-05-16T10:33:05;7.32;;;0.88;;
50821;SDS011;36794;51.212;6.980;2023-05-16T10:35:33;5.20;;;0.95;;
50821;SDS011;36794;51.212;6.980;2023-05-16T10:37:59;6.32;;;1.20;;
50821;SDS011;36794;51.212;6.980;2023-05-16T10:40:25;7.68;;;1.30;;
50821;SDS011;36794;51.212;6.980;2023-05-16T10:43:02;3.85;;;0.77;;
50821;SDS011;36794;51.212;6.980;2023-05-16T10:45:29;7.03;;;1.00;;
50821;SDS011;36794;51.212;6.980;2023-05-16T10:47:59;7.35;;;1.08;;
50821;SDS011;36794;51.212;6.980;2023-05-16T10:50:32;7.90;;;1.02;;
50821;SDS011;36794;51.212;6.980;2023-05-16T10:56:04;9.75;;;1.13;;
50821;SDS011;36794;51.212;6.980;2023-05-16T11:01:33;7.50;;;0.85;;
50821;SDS011;36794;51.212;6.980;2023-05-16T11:06:22;6.78;;;1.38;;
50821;SDS011;36794;51.212;6.980;2023-05-16T11:14:01;4.93;;;1.38;;
50821;SDS011;36794;51.212;6.980;2023-05-16T11:16:28;11.47;;;1.30;;
50821;SDS011;36794;51.212;6.980;2023-05-16T11:18:54;8.50;;;1.97;;
50821;SDS011;36794;51.212;6.980;2023-05-16T11:22:30;10.98;;;1.48;;
50821;SDS011;36794;51.212;6.980;2023-05-16T11:24:31;5.30;;;1.50;;
50821;SDS011;36794;51.212;6.980;2023-05-16T11:27:00;8.15;;;1.60;;
50821;SDS011;36794;51.212;6.980;2023-05-16T11:29:27;8.68;;;1.33;;
50821;SDS011;36794;51.212;6.980;2023-05-16T11:31:53;10.07;;;1.60;;
50821;SDS011;36794;51.212;6.980;2023-05-16T11:34:19;8.85;;;1.52;;
50821;SDS011;36794;51.212;6.980;2023-05-16T11:36:45;6.63;;;1.20;;
50821;SDS011;36794;51.212;6.980;2023-05-16T11:39:12;7.60;;;1.10;;
50821;SDS011;36794;51.212;6.980;2023-05-16T11:41:38;6.45;;;1.10;;
50821;SDS011;36794;51.212;6.980;2023-05-16T11:44:03;10.35;;;1.50;;
50821;SDS011;36794;51.212;6.980;2023-05-16T11:46:32;8.43;;;1.17;;
50821;SDS011;36794;51.212;6.980;2023-05-16T11:48:58;6.90;;;1.38;;
50821;SDS011;36794;51.212;6.980;2023-05-16T11:51:24;9.57;;;1.63;;
50821;SDS011;36794;51.212;6.980;2023-05-16T11:53:50;9.35;;;1.40;;
50821;SDS011;36794;51.212;6.980;2023-05-16T11:56:17;4.60;;;1.00;;
50821;SDS011;36794;51.212;6.980;2023-05-16T11:58:43;5.55;;;1.05;;
50821;SDS011;36794;51.212;6.980;2023-05-16T12:01:09;7.88;;;1.23;;
50821;SDS011;36794;51.212;6.980;2023-05-16T12:03:35;4.88;;;1.00;;
50821;SDS011;36794;51.212;6.980;2023-05-16T12:06:02;5.03;;;1.10;;
50821;SDS011;36794;51.212;6.980;2023-05-16T12:08:29;5.25;;;0.80;;
50821;SDS011;36794;51.212;6.980;2023-05-16T12:10:55;7.38;;;1.17;;
50821;SDS011;36794;51.212;6.980;2023-05-16T12:13:22;6.13;;;1.65;;
50821;SDS011;36794;51.212;6.980;2023-05-16T12:15:48;6.13;;;0.93;;
50821;SDS011;36794;51.212;6.980;2023-05-16T12:18:14;7.45;;;1.30;;
50821;SDS011;36794;51.212;6.980;2023-05-16T12:20:42;5.38;;;1.00;;
50821;SDS011;36794;51.212;6.980;2023-05-16T12:23:11;4.90;;;0.93;;
50821;SDS011;36794;51.212;6.980;2023-05-16T12:25:38;9.05;;;0.85;;
50821;SDS011;36794;51.212;6.980;2023-05-16T12:28:10;5.97;;;0.80;;
50821;SDS011;36794;51.212;6.980;2023-05-16T12:30:38;5.35;;;0.70;;
50821;SDS011;36794;51.212;6.980;2023-05-16T12:33:08;4.03;;;0.50;;
50821;SDS011;36794;51.212;6.980;2023-05-16T12:35:36;4.63;;;1.07;;
50821;SDS011;36794;51.212;6.980;2023-05-16T12:38:06;6.78;;;0.90;;
50821;SDS011;36794;51.212;6.980;2023-05-16T12:40:33;3.13;;;0.90;;
50821;SDS011;36794;51.212;6.980;2023-05-16T12:43:01;2.95;;;0.70;;
50821;SDS011;36794;51.212;6.980;2023-05-16T12:45:27;4.90;;;1.10;;
50821;SDS011;36794;51.212;6.980;2023-05-16T12:47:53;5.60;;;0.70;;
50821;SDS011;36794;51.212;6.980;2023-05-16T12:50:19;6.13;;;0.75;;
50821;SDS011;36794;51.212;6.980;2023-05-16T12:52:47;3.65;;;0.85;;
50821;SDS011;36794;51.212;6.980;2023-05-16T12:55:13;8.43;;;0.52;;
50821;SDS011;36794;51.212;6.980;2023-05-16T12:57:43;2.67;;;0.50;;
50821;SDS011;36794;51.212;6.980;2023-05-16T13:00:10;3.53;;;1.08;;
50821;SDS011;36794;51.212;6.980;2023-05-16T13:02:36;3.30;;;0.50;;
50821;SDS011;36794;51.212;6.980;2023-05-16T13:05:03;5.78;;;1.08;;
50821;SDS011;36794;51.212;6.980;2023-05-16T13:07:31;5.93;;;0.80;;
50821;SDS011;36794;51.212;6.980;2023-05-16T13:09:57;5.88;;;0.85;;
50821;SDS011;36794;51.212;6.980;2023-05-16T13:12:23;7.90;;;0.70;;
50821;SDS011;36794;51.212;6.980;2023-05-16T13:14:51;2.63;;;0.77;;
50821;SDS011;36794;51.212;6.980;2023-05-16T13:17:17;4.90;;;0.80;;
50821;SDS011;36794;51.212;6.980;2023-05-16T13:19:43;4.40;;;0.60;;
50821;SDS011;36794;51.212;6.980;2023-05-16T13:22:09;4.95;;;0.82;;
50821;SDS011;36794;51.212;6.980;2023-05-16T13:24:35;7.22;;;0.95;;
50821;SDS011;36794;51.212;6.980;2023-05-16T13:27:01;3.03;;;0.40;;
50821;SDS011;36794;51.212;6.980;2023-05-16T13:29:27;4.57;;;0.40;;
50821;SDS011;36794;51.212;6.980;2023-05-16T13:31:53;2.97;;;0.47;;
50821;SDS011;36794;51.212;6.980;2023-05-16T13:34:19;3.90;;;0.65;;
50821;SDS011;36794;51.212;6.980;2023-05-16T13:36:45;4.05;;;0.50;;
50821;SDS011;36794;51.212;6.980;2023-05-16T13:39:13;7.00;;;0.77;;
50821;SDS011;36794;51.212;6.980;2023-05-16T13:41:38;4.80;;;0.73;;
50821;SDS011;36794;51.212;6.980;2023-05-16T13:44:06;4.55;;;0.63;;
50821;SDS011;36794;51.212;6.980;2023-05-16T13:46:32;7.53;;;0.70;;
50821;SDS011;36794;51.212;6.980;2023-05-16T13:48:58;5.57;;;0.93;;
50821;SDS011;36794;51.212;6.980;2023-05-16T13:51:24;5.35;;;0.60;;
50821;SDS011;36794;51.212;6.980;2023-05-16T13:53:50;2.55;;;0.47;;
50821;SDS011;36794;51.212;6.980;2023-05-16T13:56:16;4.22;;;0.63;;
50821;SDS011;36794;51.212;6.980;2023-05-16T13:58:42;8.05;;;0.75;;
50821;SDS011;36794;51.212;6.980;2023-05-16T14:01:08;6.35;;;0.63;;
50821;SDS011;36794;51.212;6.980;2023-05-16T14:03:34;3.22;;;0.57;;
50821;SDS011;36794;51.212;6.980;2023-05-16T14:06:03;4.07;;;1.00;;
50821;SDS011;36794;51.212;6.980;2023-05-16T14:08:29;3.35;;;0.65;;
50821;SDS011;36794;51.212;6.980;2023-05-16T14:10:55;3.13;;;0.80;;
50821;SDS011;36794;51.212;6.980;2023-05-16T14:13:21;2.72;;;0.60;;
50821;SDS011;36794;51.212;6.980;2023-05-16T14:15:47;4.28;;;0.75;;
50821;SDS011;36794;51.212;6.980;2023-05-16T14:18:13;5.03;;;0.65;;
50821;SDS011;36794;51.212;6.980;2023-05-16T14:20:39;6.47;;;0.98;;
50821;SDS011;36794;51.212;6.980;2023-05-16T14:23:05;5.68;;;0.82;;
50821;SDS011;36794;51.212;6.980;2023-05-16T14:25:31;4.70;;;0.75;;
50821;SDS011;36794;51.212;6.980;2023-05-16T14:27:57;5.57;;;0.73;;
50821;SDS011;36794;51.212;6.980;2023-05-16T14:30:23;5.82;;;1.13;;
50821;SDS011;36794;51.212;6.980;2023-05-16T14:32:49;4.88;;;0.90;;
50821;SDS011;36794;51.212;6.980;2023-05-16T14:35:15;5.07;;;0.80;;
50821;SDS011;36794;51.212;6.980;2023-05-16T14:37:41;8.05;;;0.98;;
50821;SDS011;36794;51.212;6.980;2023-05-16T14:40:07;6.20;;;1.38;;
50821;SDS011;36794;51.212;6.980;2023-05-16T14:42:34;7.80;;;0.90;;
50821;SDS011;36794;51.212;6.980;2023-05-16T14:45:00;5.65;;;1.10;;
50821;SDS011;36794;51.212;6.980;2023-05-16T14:47:26;5.05;;;1.00;;
50821;SDS011;36794;51.212;6.980;2023-05-16T14:49:55;5.40;;;1.02;;
50821;SDS011;36794;51.212;6.980;2023-05-16T14:52:21;6.45;;;1.00;;
50821;SDS011;36794;51.212;6.980;2023-05-16T14:54:47;4.03;;;1.25;;
50821;SDS011;36794;51.212;6.980;2023-05-16T14:57:13;6.97;;;1.20;;
50821;SDS011;36794;51.212;6.980;2023-05-16T14:59:39;8.32;;;1.27;;
50821;SDS011;36794;51.212;6.980;2023-05-16T15:02:05;7.93;;;0.98;;
50821;SDS011;36794;51.212;6.980;2023-05-16T15:04:31;4.20;;;1.00;;
50821;SDS011;36794;51.212;6.980;2023-05-16T15:06:57;4.28;;;1.15;;